Time;durP1;ratioP1;P1;durP2;ratioP2;P2;SDS_P1;SDS_P2;PMS_P1;PMS_P2;Temp;Humidity;BMP_temperature;BMP_pressure;BME280_temperature;BME280_humidity;BME280_pressure;Samples;Min_cycle;Max_cycle;Signal;HPM_P1;HPM_P2
2022/12/12 05:30:43;;;;;;;;;34.33;26.67;;;;;2.44;63.51;100640.41;5041821;27;45920;-73
2022/12/12 05:33:09;;;;;;;;;38.33;32.00;;;;;2.45;63.05;100629.81;5031114;28;45488;-74
2022/12/12 05:35:34;;;;;;;;;36.25;26.75;;;;;2.44;63.36;100636.00;5035596;28;45422;-72
2022/12/12 05:38:02;;;;;;;;;29.75;23.75;;;;;2.46;63.06;100628.91;5035202;28;45272;-73
2022/12/12 05:40:28;;;;;;;;;27.25;24.75;;;;;2.47;63.42;100629.75;5035239;28;45482;-72
2022/12/12 05:42:53;;;;;;;;;27.75;23.25;;;;;2.47;63.59;100621.81;5035315;28;45418;-73
2022/12/12 05:45:18;;;;;;;;;28.00;23.75;;;;;2.50;63.05;100625.31;5035155;28;45672;-74
2022/12/12 05:47:44;;;;;;;;;28.00;23.25;;;;;2.49;63.19;100627.97;5035818;28;45864;-74
2022/12/12 05:50:09;;;;;;;;;30.75;25.50;;;;;2.49;63.01;100628.84;5036888;28;45415;-73
2022/12/12 05:52:34;;;;;;;;;32.25;24.25;;;;;2.50;63.32;100633.25;5037557;28;45367;-73
2022/12/12 05:55:00;;;;;;;;;26.00;24.00;;;;;2.49;63.51;100633.25;5037465;28;45238;-73
2022/12/12 05:57:25;;;;;;;;;36.00;29.67;;;;;2.51;62.94;100636.78;5037278;28;45424;-72
2022/12/12 05:59:50;;;;;;;;;32.00;25.00;;;;;2.45;62.93;100642.16;5039934;28;45399;-73
2022/12/12 06:02:16;;;;;;;;;31.00;29.00;;;;;2.43;62.79;100642.19;5038270;28;45449;-73
2022/12/12 06:04:42;;;;;;;;;32.75;29.00;;;;;2.42;63.21;100636.91;5036027;28;45233;-73
2022/12/12 06:07:08;;;;;;;;;32.00;28.67;;;;;2.50;63.29;100654.41;5034803;28;45232;-73
2022/12/12 06:09:33;;;;;;;;;27.67;25.33;;;;;2.52;63.17;100649.09;5028971;28;46442;-73
2022/12/12 06:11:59;;;;;;;;;34.00;26.33;;;;;2.43;62.87;100636.88;5034483;28;45553;-73
2022/12/12 06:14:25;;;;;;;;;29.75;24.75;;;;;2.45;63.09;100635.09;5035086;28;45213;-72
2022/12/12 06:16:51;;;;;;;;;34.50;27.00;;;;;2.47;63.39;100643.00;5034660;28;45528;-73
2022/12/12 06:19:17;;;;;;;;;37.67;30.00;;;;;2.49;63.19;100634.13;5034591;28;45434;-72
2022/12/12 06:21:43;;;;;;;;;27.00;22.75;;;;;2.49;62.94;100635.91;5034652;28;45375;-72
2022/12/12 06:24:08;;;;;;;;;15.25;13.50;;;;;2.58;62.24;100647.25;5034881;28;45499;-73
2022/12/12 06:26:34;;;;;;;;;29.00;27.00;;;;;2.56;62.39;100651.66;5034226;28;45500;-74
2022/12/12 06:28:59;;;;;;;;;34.00;25.75;;;;;2.51;62.68;100653.53;5022385;28;46500;-73
2022/12/12 06:31:24;;;;;;;;;48.33;31.67;;;;;2.45;63.02;100648.31;5021670;28;45530;-71
2022/12/12 06:33:50;;;;;;;;;34.67;27.67;;;;;2.39;62.89;100639.56;5034692;28;45466;-73
2022/12/12 06:36:22;;;;;;;;;37.00;30.67;;;;;2.46;62.89;100665.09;5034374;28;45534;-73
2022/12/12 06:38:58;;;;;;;;;32.00;29.67;;;;;2.39;63.14;100648.38;5034194;28;46131;-72
2022/12/12 06:41:25;;;;;;;;;35.00;30.00;;;;;2.31;62.64;100644.97;5032996;28;45367;-73
2022/12/12 06:43:51;;;;;;;;;26.50;21.75;;;;;2.41;63.38;100653.66;5029369;28;45368;-74
2022/12/12 06:46:28;;;;;;;;;26.25;23.00;;;;;2.39;63.53;100651.03;5054407;28;45460;-72
2022/12/12 06:48:54;;;;;;;;;37.33;27.00;;;;;2.34;63.54;100642.31;5019548;28;46374;-72
2022/12/12 06:51:23;;;;;;;;;25.00;19.67;;;;;2.21;63.14;100633.66;5055006;28;45488;-71
2022/12/12 06:53:49;;;;;;;;;39.33;31.00;;;;;2.27;63.68;100654.75;5036164;28;45387;-75
2022/12/12 06:56:18;;;;;;;;;28.67;27.67;;;;;2.24;63.57;100649.50;5054758;28;45458;-79
2022/12/12 06:58:45;;;;;;;;;37.00;28.00;;;;;2.19;63.78;100651.34;5054367;28;45554;-73
2022/12/12 07:01:11;;;;;;;;;31.33;23.00;;;;;1.99;63.57;100626.91;5055413;28;45306;-75
2022/12/12 07:03:37;;;;;;;;;27.75;23.75;;;;;1.83;63.60;100599.81;5054173;28;45514;-75
2022/12/12 07:06:03;;;;;;;;;30.00;27.67;;;;;1.99;63.99;100626.03;5054651;28;45562;-74
2022/12/12 07:08:28;;;;;;;;;35.00;27.67;;;;;1.97;64.39;100617.25;5053798;28;46151;-73
2022/12/12 07:10:55;;;;;;;;;29.00;26.33;;;;;2.02;64.77;100624.25;5035556;28;45344;-73
2022/12/12 07:13:20;;;;;;;;;27.33;25.00;;;;;2.06;64.34;100633.88;5053922;28;45348;-73
2022/12/12 07:15:48;;;;;;;;;29.33;25.33;;;;;2.06;64.07;100636.50;5054143;28;45512;-72
2022/12/12 07:18:15;;;;;;;;;28.33;28.33;;;;;2.13;63.57;100658.44;5035507;28;45562;-75
2022/12/12 07:20:42;;;;;;;;;29.33;27.67;;;;;2.08;64.16;100668.22;5054097;28;45221;-76
2022/12/12 07:23:08;;;;;;;;;30.00;26.00;;;;;2.01;63.92;100654.22;5053865;28;45514;-71
2022/12/12 07:25:37;;;;;;;;;34.67;30.33;;;;;2.01;63.90;100664.78;5056644;28;45426;-75
2022/12/12 07:28:03;;;;;;;;;34.00;18.00;;;;;1.98;63.82;100662.16;5052245;28;45335;-72
2022/12/12 07:30:28;;;;;;;;;28.67;26.00;;;;;1.94;63.44;100659.59;5051828;28;45297;-75
2022/12/12 07:32:54;;;;;;;;;34.33;29.00;;;;;1.90;63.78;100679.91;5051626;28;45551;-72
2022/12/12 07:35:19;;;;;;;;;27.33;27.33;;;;;1.81;64.06;100680.00;5053425;28;45253;-69
2022/12/12 07:37:45;;;;;;;;;41.00;29.33;;;;;1.80;64.14;100681.75;5035393;28;47012;-71
2022/12/12 07:40:11;;;;;;;;;36.67;27.67;;;;;1.83;64.22;100678.22;5053780;28;45863;-69
2022/12/12 07:42:36;;;;;;;;;41.00;30.00;;;;;1.83;64.03;100675.56;5053381;28;45412;-70
2022/12/12 07:45:02;;;;;;;;;31.67;31.67;;;;;1.87;64.25;100670.22;5053668;28;45482;-70
2022/12/12 07:47:27;;;;;;;;;38.33;34.00;;;;;1.78;63.77;100643.06;5053901;28;45962;-76
2022/12/12 07:49:53;;;;;;;;;28.00;25.67;;;;;1.94;63.75;100662.25;5053296;28;45447;-72
2022/12/12 07:52:19;;;;;;;;;31.00;29.67;;;;;1.96;63.63;100674.53;5053878;28;45529;-73
2022/12/12 07:54:44;;;;;;;;;28.33;24.67;;;;;1.96;63.48;100678.97;5038275;28;45908;-72
2022/12/12 07:57:09;;;;;;;;;33.67;30.67;;;;;1.92;63.59;100682.53;5055678;28;45959;-72
2022/12/12 07:59:35;;;;;;;;;43.33;33.33;;;;;1.76;64.25;100653.63;5057274;28;45450;-72
2022/12/12 08:02:00;;;;;;;;;34.00;29.00;;;;;1.91;64.25;100681.66;5057128;28;45469;-71
2022/12/12 08:04:26;;;;;;;;;32.00;26.00;;;;;2.04;63.90;100692.97;5056894;28;45553;-71
2022/12/12 08:06:51;;;;;;;;;36.33;29.33;;;;;2.06;63.49;100689.38;5056566;28;46124;-70
2022/12/12 08:09:16;;;;;;;;;30.67;28.00;;;;;2.02;63.65;100686.81;5056683;28;45356;-72
2022/12/12 08:11:42;;;;;;;;;36.33;29.33;;;;;2.11;63.74;100699.94;5056474;28;45287;-71
2022/12/12 08:14:07;;;;;;;;;33.33;28.67;;;;;2.10;63.57;100685.81;5056568;28;45379;-70
2022/12/12 08:16:33;;;;;;;;;45.00;35.00;;;;;2.11;63.45;100690.22;5056197;28;46022;-71
2022/12/12 08:18:58;;;;;;;;;38.33;30.00;;;;;2.22;63.32;100701.53;5056511;28;45232;-70
2022/12/12 08:21:25;;;;;;;;;42.00;36.33;;;;;2.24;63.08;100705.03;5056432;28;45240;-70
2022/12/12 08:23:50;;;;;;;;;37.00;32.00;;;;;2.18;62.80;100685.72;5056672;28;45493;-70
2022/12/12 08:26:17;;;;;;;;;35.33;31.33;;;;;2.23;62.61;100678.59;5053187;28;46046;-71
2022/12/12 08:28:44;;;;;;;;;36.00;29.00;;;;;2.34;62.35;100697.84;5056173;28;45438;-70
2022/12/12 08:31:12;;;;;;;;;36.33;29.00;;;;;2.35;62.50;100699.63;5056009;28;45667;-69
2022/12/12 08:33:38;;;;;;;;;35.67;32.00;;;;;2.33;62.51;100711.97;5056475;28;45592;-70
2022/12/12 08:36:18;;;;;;;;;44.67;33.33;;;;;2.27;62.82;100699.72;5056067;28;45376;-69
2022/12/12 08:38:44;;;;;;;;;29.67;22.00;;;;;2.34;62.43;100711.09;5055826;28;45360;-69
2022/12/12 08:41:12;;;;;;;;;37.00;29.33;;;;;2.28;62.39;100706.75;5055988;28;45397;-69
2022/12/12 08:43:39;;;;;;;;;46.33;33.00;;;;;2.37;62.46;100726.06;5038382;28;46024;-71
2022/12/12 08:46:05;;;;;;;;;34.33;34.00;;;;;2.24;62.03;100725.31;5056132;28;46029;-71
2022/12/12 08:48:31;;;;;;;;;40.33;32.00;;;;;2.22;61.84;100738.56;5056297;28;45332;-71
2022/12/12 08:50:58;;;;;;;;;37.67;29.67;;;;;2.15;61.99;100722.78;5056220;28;45324;-70
2022/12/12 08:53:24;;;;;;;;;42.33;29.00;;;;;2.13;62.11;100733.38;5055901;28;45438;-69
2022/12/12 08:55:51;;;;;;;;;15.00;15.00;;;;;2.12;62.21;100729.00;5056809;28;45521;-70
2022/12/12 08:58:16;;;;;;;;;30.00;30.00;;;;;2.02;62.19;100730.00;5057805;28;45495;-71
2022/12/12 09:00:42;;;;;;;;;38.67;30.67;;;;;2.01;62.87;100735.28;5058623;28;45308;-69
2022/12/12 09:03:07;;;;;;;;;39.67;30.67;;;;;1.97;63.03;100738.84;5056084;28;45951;-70
2022/12/12 09:05:33;;;;;;;;;35.00;30.33;;;;;2.02;62.90;100737.06;5055625;28;45335;-71
2022/12/12 09:07:58;;;;;;;;;41.00;34.33;;;;;2.07;62.92;100728.16;5057388;28;45399;-72
2022/12/12 09:10:24;;;;;;;;;36.00;30.00;;;;;2.19;63.05;100728.03;5055793;28;45316;-73
2022/12/12 09:12:50;;;;;;;;;37.00;32.00;;;;;2.26;62.42;100731.47;5017711;28;47455;-76
2022/12/12 09:15:16;;;;;;;;;40.33;32.67;;;;;2.31;62.21;100741.97;5053251;28;45470;-70
2022/12/12 09:17:41;;;;;;;;;40.00;34.33;;;;;2.19;61.74;100737.72;5054678;28;45272;-70
2022/12/12 09:20:07;;;;;;;;;40.00;35.67;;;;;2.12;62.15;100733.41;5061539;28;45427;-71
2022/12/12 09:22:32;;;;;;;;;36.33;31.67;;;;;2.15;62.14;100733.34;5055766;28;45493;-71
2022/12/12 09:24:58;;;;;;;;;32.67;30.33;;;;;2.14;62.40;100721.91;5036892;28;47032;-71
2022/12/12 09:27:23;;;;;;;;;36.00;30.67;;;;;2.15;62.15;100707.78;5055732;28;45389;-70
2022/12/12 09:29:48;;;;;;;;;45.33;38.00;;;;;2.08;61.79;100706.13;5055651;28;45249;-71
2022/12/12 09:32:14;;;;;;;;;40.67;34.00;;;;;2.18;62.12;100710.41;5054401;28;45641;-71
2022/12/12 09:34:39;;;;;;;;;42.33;34.33;;;;;2.19;61.47;100717.44;5055223;28;45380;-73
2022/12/12 09:37:05;;;;;;;;;43.33;37.67;;;;;2.16;61.65;100711.31;5055428;28;45426;-71
2022/12/12 09:39:30;;;;;;;;;36.67;26.67;;;;;2.16;61.82;100728.06;5055618;28;45338;-73
2022/12/12 09:41:56;;;;;;;;;45.67;38.00;;;;;2.11;62.12;100706.09;5055384;28;45315;-71
2022/12/12 09:44:24;;;;;;;;;35.33;33.33;;;;;2.31;61.87;100726.09;5054741;28;45400;-70
2022/12/12 09:46:59;;;;;;;;;40.00;36.00;;;;;2.36;61.34;100717.25;5053182;28;45461;-70
2022/12/12 09:49:27;;;;;;;;;41.33;35.67;;;;;2.46;61.60;100715.34;5054526;28;45416;-71
2022/12/12 09:51:54;;;;;;;;;38.67;38.67;;;;;2.46;61.25;100708.28;5055186;28;45377;-70
2022/12/12 09:54:24;;;;;;;;;40.67;38.67;;;;;2.51;60.97;100721.44;5055058;28;46420;-70
2022/12/12 09:57:03;;;;;;;;;43.67;37.67;;;;;2.50;61.23;100715.28;5055140;28;45181;-69
2022/12/12 09:59:43;;;;;;;;;36.67;35.00;;;;;2.55;61.32;100724.00;5056619;28;45378;-70
2022/12/12 10:02:08;;;;;;;;;45.33;39.67;;;;;2.60;60.92;100716.03;5054824;28;45707;-71
2022/12/12 10:04:57;;;;;;;;;35.67;31.00;;;;;2.65;61.09;100716.81;5054958;28;45253;-69
2022/12/12 10:07:45;;;;;;;;;37.67;33.33;;;;;2.68;60.94;100703.56;5055075;28;45362;-70
2022/12/12 10:10:24;;;;;;;;;26.67;26.67;;;;;2.81;59.99;100707.75;5054779;28;45527;-71
2022/12/12 10:12:51;;;;;;;;;42.00;33.00;;;;;2.70;60.04;100670.00;5054995;28;47380;-70
2022/12/12 10:15:25;;;;;;;;;38.00;35.33;;;;;2.86;59.83;100691.81;5054728;28;45434;-70
2022/12/12 10:17:51;;;;;;;;;36.33;29.67;;;;;2.91;59.62;100685.53;5036779;28;45324;-70
2022/12/12 10:20:26;;;;;;;;;43.33;41.00;;;;;2.88;59.35;100685.63;5036252;28;45900;-70
2022/12/12 10:23:00;;;;;;;;;48.00;41.00;;;;;2.93;59.05;100682.88;5036824;28;45350;-72
2022/12/12 10:25:47;;;;;;;;;38.00;35.00;;;;;2.98;59.35;100683.66;5053782;28;46172;-72
2022/12/12 10:28:18;;;;;;;;;58.67;41.67;;;;;3.07;59.10;100685.28;5036526;28;45518;-73
2022/12/12 10:31:21;;;;;;;;;40.00;36.33;;;;;3.12;58.61;100697.59;5052080;28;45255;-70
2022/12/12 10:34:00;;;;;;;;;51.00;39.00;;;;;3.09;58.91;100692.31;5053252;28;46516;-70
2022/12/12 10:36:34;;;;;;;;;49.00;41.33;;;;;3.16;59.19;100701.91;5036306;28;46137;-72
2022/12/12 10:39:35;;;;;;;;;42.00;38.00;;;;;3.22;58.85;100716.84;5052240;28;45436;-70
2022/12/12 10:42:17;;;;;;;;;45.00;38.00;;;;;3.13;58.17;100703.75;5049426;28;45300;-71
2022/12/12 10:45:07;;;;;;;;;49.67;43.67;;;;;3.17;58.02;100714.25;5054338;28;45420;-71
2022/12/12 10:47:33;;;;;;;;;45.00;41.33;;;;;3.10;57.91;100695.84;5050495;28;46289;-70
2022/12/12 10:50:24;;;;;;;;;47.00;39.00;;;;;2.99;58.11;100670.41;5036252;28;45321;-72
2022/12/12 10:52:50;;;;;;;;;47.00;43.00;;;;;3.15;57.48;100694.03;5054276;28;45445;-72
2022/12/12 10:55:22;;;;;;;;;48.00;37.67;;;;;3.13;57.91;100683.44;5035962;28;45585;-72
2022/12/12 10:58:00;;;;;;;;;38.33;32.33;;;;;2.99;57.77;100680.13;5054109;28;46430;-72
2022/12/12 11:00:40;;;;;;;;;48.67;40.67;;;;;2.91;57.95;100685.53;5055352;28;45532;-74
2022/12/12 11:03:42;;;;;;;;;43.00;39.00;;;;;2.96;58.47;100682.84;5054829;28;45514;-72
2022/12/12 11:06:19;;;;;;;;;41.67;36.00;;;;;3.07;58.36;100666.75;5052993;28;45287;-70
2022/12/12 11:08:55;;;;;;;;;40.67;39.67;;;;;3.12;57.51;100641.09;5051397;28;47828;-72
2022/12/12 11:11:24;;;;;;;;;47.67;39.67;;;;;3.37;57.24;100642.41;5035857;28;45260;-72
2022/12/12 11:13:59;;;;;;;;;41.33;40.33;;;;;3.51;57.04;100624.47;5054081;28;45340;-72
2022/12/12 11:16:42;;;;;;;;;45.00;38.33;;;;;3.87;56.80;100633.47;5053941;28;45410;-74
2022/12/12 11:19:18;;;;;;;;;61.00;39.67;;;;;4.06;55.62;100623.34;5053904;28;45549;-74
2022/12/12 11:21:45;;;;;;;;;48.67;39.00;;;;;4.17;55.87;100614.25;5053725;28;45397;-72
2022/12/12 11:24:17;;;;;;;;;49.33;44.67;;;;;4.08;55.42;100577.31;5053894;28;45520;-71
2022/12/12 11:26:48;;;;;;;;;46.00;39.00;;;;;4.23;54.41;100593.81;5053202;28;45481;-72
2022/12/12 11:29:50;;;;;;;;;36.67;36.67;;;;;4.22;54.58;100597.38;5057116;28;45300;-72
2022/12/12 11:32:38;;;;;;;;;49.67;40.00;;;;;4.22;54.08;100597.38;5056709;28;45292;-75
2022/12/12 11:35:10;;;;;;;;;43.33;38.00;;;;;4.18;54.39;100596.53;5056935;28;45347;-72
2022/12/12 11:37:44;;;;;;;;;46.00;42.00;;;;;3.89;54.95;100554.78;5057555;28;45336;-73
2022/12/12 11:40:23;;;;;;;;;48.67;38.00;;;;;4.13;54.86;100598.44;5057298;28;46918;-73
2022/12/12 11:42:49;;;;;;;;;43.33;38.00;;;;;4.04;55.18;100578.28;5057327;28;45339;-72
2022/12/12 11:45:15;;;;;;;;;49.33;37.00;;;;;4.13;55.39;100596.66;5057621;28;45502;-73
2022/12/12 11:47:43;;;;;;;;;48.33;42.67;;;;;3.92;55.03;100556.47;5057436;28;45253;-72
2022/12/12 11:50:26;;;;;;;;;52.00;36.67;;;;;4.11;55.18;100593.16;5057125;28;45653;-72
2022/12/12 11:52:59;;;;;;;;;46.33;38.67;;;;;4.05;55.23;100585.34;5057416;28;45234;-72
2022/12/12 11:56:02;;;;;;;;;39.00;38.25;;;;;4.07;54.69;100596.81;5056293;28;45381;-71
2022/12/12 11:58:42;;;;;;;;;32.25;32.25;;;;;4.08;54.47;100601.19;4961986;28;46594;-73
2022/12/12 12:01:25;;;;;;;;;41.00;36.00;;;;;4.11;54.69;100597.59;5057895;28;45387;-73
2022/12/12 12:04:38;;;;;;;;;45.00;40.00;;;;;4.14;54.43;100581.63;5055866;28;45233;-73
2022/12/12 12:07:12;;;;;;;;;43.00;38.00;;;;;4.25;54.29;100592.00;5009563;28;45424;-73
2022/12/12 12:10:06;;;;;;;;;45.00;39.00;;;;;4.25;54.51;100592.88;5056832;28;45377;-72
2022/12/12 12:12:57;;;;;;;;;38.25;35.25;;;;;4.23;54.12;100586.72;5056760;28;45364;-72
2022/12/12 12:15:31;;;;;;;;;41.67;37.67;;;;;4.22;54.33;100570.84;5057749;28;45451;-72
2022/12/12 12:18:34;;;;;;;;;42.00;40.00;;;;;4.16;54.12;100566.56;5057822;28;45390;-72
2022/12/12 12:21:02;;;;;;;;;44.67;37.33;;;;;4.12;54.26;100576.34;5057334;28;46184;-71
2022/12/12 12:23:46;;;;;;;;;32.75;30.25;;;;;4.12;54.59;100578.13;5038220;28;47246;-73
2022/12/12 12:26:29;;;;;;;;;40.25;37.25;;;;;4.15;54.40;100575.41;5057104;28;45324;-71
2022/12/12 12:29:26;;;;;;;;;48.50;40.50;;;;;4.22;54.30;100576.13;5058060;28;45323;-72
2022/12/12 12:31:58;;;;;;;;;43.25;30.50;;;;;4.24;53.93;100564.59;5057102;28;45712;-71
2022/12/12 12:34:56;;;;;;;;;39.67;32.00;;;;;4.29;54.27;100562.69;5056776;28;45502;-73
2022/12/12 12:37:43;;;;;;;;;44.50;40.25;;;;;4.34;54.64;100558.13;5055725;28;45544;-70
2022/12/12 12:40:44;;;;;;;;;43.00;40.67;;;;;4.28;54.24;100530.88;5055017;28;45460;-74
2022/12/12 12:43:28;;;;;;;;;54.33;43.00;;;;;4.34;54.10;100549.34;5056318;28;45731;-70
2022/12/12 12:46:17;;;;;;;;;48.00;42.00;;;;;4.22;54.57;100512.47;5056077;28;46087;-71
2022/12/12 12:48:47;;;;;;;;;36.75;31.50;;;;;4.34;54.68;100536.91;5055924;28;45709;-71
2022/12/12 12:51:23;;;;;;;;;48.67;41.67;;;;;4.33;54.20;100539.63;5054539;28;45327;-71
2022/12/12 12:54:04;;;;;;;;;51.75;40.00;;;;;4.35;54.32;100537.78;5049327;28;45749;-70
2022/12/12 12:56:39;;;;;;;;;41.25;37.25;;;;;4.37;53.98;100526.22;5056141;28;46137;-76
2022/12/12 12:59:11;;;;;;;;;41.67;36.00;;;;;4.45;54.18;100540.19;5056040;28;45380;-73
2022/12/12 13:01:42;;;;;;;;;45.75;41.00;;;;;4.52;54.75;100541.78;5057737;28;45316;-73
2022/12/12 13:04:22;;;;;;;;;53.50;42.75;;;;;4.65;53.77;100530.88;5056083;28;46170;-72
2022/12/12 13:07:10;;;;;;;;;39.50;34.50;;;;;4.75;53.68;100540.34;5054560;28;46233;-70
2022/12/12 13:09:47;;;;;;;;;54.00;38.50;;;;;4.75;54.05;100525.28;5053794;28;45304;-75
2022/12/12 13:12:20;;;;;;;;;47.50;37.25;;;;;4.73;53.82;100518.28;5055720;28;45442;-75
2022/12/12 13:14:54;;;;;;;;;41.25;39.25;;;;;4.83;53.95;100525.09;5053963;28;45976;-69
2022/12/12 13:17:37;;;;;;;;;46.00;38.67;;;;;4.79;54.11;100520.75;5053817;28;46132;-73
2022/12/12 13:20:03;;;;;;;;;41.50;34.50;;;;;4.82;53.85;100518.91;5054366;28;45548;-68
2022/12/12 13:22:40;;;;;;;;;48.33;41.67;;;;;4.81;53.85;100522.47;5051023;28;45359;-70
2022/12/12 13:25:28;;;;;;;;;44.25;39.25;;;;;4.78;53.88;100506.59;5052860;28;45871;-69
2022/12/12 13:27:57;;;;;;;;;43.00;36.50;;;;;4.69;53.79;100490.91;5033915;28;47069;-69
2022/12/12 13:30:31;;;;;;;;;50.00;38.25;;;;;4.77;53.58;100511.94;5054936;28;45422;-70
2022/12/12 13:33:24;;;;;;;;;44.00;38.25;;;;;4.79;53.77;100503.03;5049214;28;45536;-69
2022/12/12 13:35:54;;;;;;;;;42.00;35.75;;;;;4.83;53.38;100491.44;5055099;28;45664;-69
2022/12/12 13:38:28;;;;;;;;;43.25;35.50;;;;;4.83;53.56;100490.56;5055245;28;45355;-70
2022/12/12 13:41:03;;;;;;;;;48.50;34.25;;;;;4.71;53.09;100469.63;5051171;28;45538;-69
2022/12/12 13:43:37;;;;;;;;;31.25;28.25;;;;;4.76;53.35;100484.56;5053437;28;45668;-69
2022/12/12 13:46:20;;;;;;;;;40.25;32.75;;;;;4.77;53.64;100480.09;5053354;28;45314;-72
2022/12/12 13:48:54;;;;;;;;;39.75;30.75;;;;;4.78;53.22;100479.16;5054581;28;45275;-72
2022/12/12 13:51:33;;;;;;;;;33.50;32.00;;;;;4.77;53.71;100488.91;5054881;28;45363;-71
2022/12/12 13:54:10;;;;;;;;;39.50;31.00;;;;;4.77;53.27;100485.41;5054999;28;45362;-71
2022/12/12 13:56:43;;;;;;;;;33.50;30.50;;;;;4.74;52.99;100483.72;5054441;28;45426;-70
2022/12/12 13:59:26;;;;;;;;;37.50;32.75;;;;;4.74;53.33;100480.19;5054881;28;45493;-71
2022/12/12 14:01:55;;;;;;;;;37.50;37.25;;;;;4.75;53.32;100488.13;5054993;28;45281;-71
2022/12/12 14:04:28;;;;;;;;;37.50;26.00;;;;;4.74;53.20;100485.50;5055296;28;45476;-70
2022/12/12 14:07:24;;;;;;;;;46.00;38.25;;;;;4.72;53.11;100482.00;5054670;28;45441;-72
2022/12/12 14:09:55;;;;;;;;;43.00;36.25;;;;;4.68;53.64;100464.44;5053847;28;45608;-69
2022/12/12 14:12:32;;;;;;;;;40.50;32.00;;;;;4.78;53.33;100477.38;5054952;28;45508;-71
2022/12/12 14:15:01;;;;;;;;;39.75;36.25;;;;;5.00;52.82;100482.16;5055112;28;45409;-70
2022/12/12 14:17:30;;;;;;;;;41.33;39.00;;;;;5.29;52.13;100487.50;5054994;28;45328;-70
2022/12/12 14:19:57;;;;;;;;;42.50;39.50;;;;;5.57;51.27;100493.78;5036510;28;46099;-71
2022/12/12 14:22:35;;;;;;;;;37.75;34.25;;;;;5.85;51.10;100491.16;5054484;28;45427;-72
2022/12/12 14:25:16;;;;;;;;;36.50;31.75;;;;;6.12;50.35;100484.16;5054347;28;45324;-70
2022/12/12 14:27:50;;;;;;;;;50.75;37.75;;;;;6.39;49.91;100485.91;5054724;28;45560;-69
2022/12/12 14:30:32;;;;;;;;;41.75;34.75;;;;;6.57;49.64;100462.25;5036630;28;46656;-71
2022/12/12 14:33:04;;;;;;;;;30.00;28.50;;;;;6.83;48.92;100479.06;5054642;28;45506;-69
2022/12/12 14:36:08;;;;;;;;;33.50;29.00;;;;;7.03;48.44;100480.16;5054559;28;45530;-73
2022/12/12 14:38:47;;;;;;;;;37.25;31.75;;;;;7.25;47.92;100486.47;5040098;28;45394;-73
2022/12/12 14:41:17;;;;;;;;;40.50;35.50;;;;;7.27;47.66;100479.28;5054145;28;46942;-73
2022/12/12 14:43:53;;;;;;;;;41.50;36.50;;;;;7.22;47.39;100479.47;5054399;28;45399;-73
2022/12/12 14:46:18;;;;;;;;;36.50;32.25;;;;;7.03;47.38;100489.03;5036247;28;45464;-73
2022/12/12 14:48:44;;;;;;;;;38.75;36.00;;;;;6.62;47.76;100462.97;5035795;28;45281;-72
2022/12/12 14:51:12;;;;;;;;;41.50;36.25;;;;;6.55;48.49;100488.06;5053966;28;45965;-72
2022/12/12 14:53:37;;;;;;;;;40.75;38.00;;;;;6.37;49.17;100493.09;5054242;28;45529;-74
2022/12/12 14:56:09;;;;;;;;;33.25;30.75;;;;;6.20;49.48;100495.41;5053849;28;45472;-73
2022/12/12 14:58:44;;;;;;;;;41.00;37.25;;;;;5.94;50.23;100495.38;5054133;28;45457;-74
2022/12/12 15:01:10;;;;;;;;;43.50;36.00;;;;;5.77;50.33;100493.19;5036984;28;48510;-72
2022/12/12 15:03:44;;;;;;;;;37.75;35.25;;;;;5.63;51.42;100493.59;5053435;28;45629;-74
2022/12/12 15:06:31;;;;;;;;;32.75;30.75;;;;;5.45;51.79;100493.25;5053316;28;45352;-72
2022/12/12 15:09:14;;;;;;;;;37.50;37.50;;;;;5.21;51.42;100497.47;5053510;28;45606;-72
2022/12/12 15:11:40;;;;;;;;;47.75;40.00;;;;;5.02;52.37;100486.47;5053580;28;46124;-74
2022/12/12 15:14:05;;;;;;;;;34.75;32.25;;;;;4.85;52.77;100496.69;5035767;28;45330;-73
2022/12/12 15:16:46;;;;;;;;;42.00;38.00;;;;;4.76;52.71;100505.78;5053693;28;45779;-72
2022/12/12 15:19:15;;;;;;;;;40.75;38.25;;;;;4.55;52.94;100508.97;5054517;28;45363;-73
2022/12/12 15:21:43;;;;;;;;;48.50;37.75;;;;;4.44;53.67;100518.97;5054924;28;46125;-72
2022/12/12 15:24:19;;;;;;;;;38.25;32.50;;;;;4.34;53.63;100513.03;5054064;28;45358;-73
2022/12/12 15:26:45;;;;;;;;;43.00;41.67;;;;;4.16;53.91;100506.41;5036274;28;45257;-73
2022/12/12 15:29:20;;;;;;;;;42.00;38.00;;;;;3.97;54.23;100490.94;5054735;28;45321;-75
2022/12/12 15:31:48;;;;;;;;;46.25;39.00;;;;;3.97;54.81;100509.50;5054006;28;46182;-73
2022/12/12 15:34:33;;;;;;;;;40.75;33.75;;;;;3.89;54.75;100515.00;5053713;28;45343;-72
2022/12/12 15:37:16;;;;;;;;;40.25;34.50;;;;;3.84;54.89;100513.31;5054214;28;45471;-72
2022/12/12 15:39:42;;;;;;;;;44.50;36.75;;;;;3.80;54.87;100518.72;5053378;28;45647;-75
2022/12/12 15:42:12;;;;;;;;;30.50;26.00;;;;;3.72;54.95;100509.19;5053240;28;45354;-72
2022/12/12 15:44:40;;;;;;;;;30.50;28.25;;;;;3.61;55.34;100489.97;5053183;28;45391;-73
2022/12/12 15:47:12;;;;;;;;;37.50;30.50;;;;;3.68;55.34;100510.13;5053691;28;45330;-72
2022/12/12 15:49:43;;;;;;;;;37.75;34.25;;;;;3.62;55.71;100499.69;5053383;28;45323;-72
2022/12/12 15:52:16;;;;;;;;;28.75;25.50;;;;;3.55;55.54;100504.25;5052927;28;45572;-71
2022/12/12 15:54:48;;;;;;;;;32.25;28.25;;;;;3.42;55.54;100481.53;5053381;28;45494;-71
2022/12/12 15:57:19;;;;;;;;;43.75;38.00;;;;;3.44;56.02;100492.97;5052738;28;45480;-72
2022/12/12 15:59:45;;;;;;;;;36.00;33.00;;;;;3.46;55.78;100506.22;5036718;28;46104;-71
2022/12/12 16:02:22;;;;;;;;;37.33;32.67;;;;;3.28;55.63;100483.63;5053131;28;46994;-73
2022/12/12 16:05:12;;;;;;;;;47.25;38.75;;;;;3.35;56.10;100496.69;5053357;28;45379;-72
2022/12/12 16:07:38;;;;;;;;;44.33;33.67;;;;;3.27;55.93;100488.03;5053250;28;45357;-72
2022/12/12 16:10:09;;;;;;;;;41.25;31.75;;;;;3.31;56.41;100500.34;5052243;28;45558;-74
2022/12/12 16:13:19;;;;;;;;;35.50;34.00;;;;;3.33;56.02;100493.19;5034636;28;47345;-72
2022/12/12 16:15:44;;;;;;;;;41.00;37.00;;;;;3.25;55.41;100481.88;5056376;28;45482;-70
2022/12/12 16:18:12;;;;;;;;;47.67;35.00;;;;;3.19;55.84;100475.84;5056168;28;45319;-70
2022/12/12 16:20:48;;;;;;;;;36.50;32.25;;;;;3.09;56.22;100474.28;5056148;28;45308;-71
2022/12/12 16:23:29;;;;;;;;;43.33;38.00;;;;;3.12;55.95;100492.78;5055856;28;45537;-71
2022/12/12 16:25:56;;;;;;;;;49.75;38.75;;;;;2.97;56.33;100472.75;5055763;28;45438;-69
2022/12/12 16:28:26;;;;;;;;;45.50;39.75;;;;;3.01;56.49;100485.91;5052096;28;45509;-69
2022/12/12 16:31:10;;;;;;;;;21.33;15.67;;;;;2.96;56.62;100476.31;5056589;28;45604;-71
2022/12/12 16:33:38;;;;;;;;;42.67;37.00;;;;;2.98;56.61;100483.28;5056725;28;45451;-72
2022/12/12 16:36:12;;;;;;;;;45.33;40.00;;;;;2.97;56.41;100481.59;5056615;28;45530;-73
2022/12/12 16:38:42;;;;;;;;;35.00;34.00;;;;;2.87;56.49;100472.06;5056431;28;45343;-75
2022/12/12 16:41:12;;;;;;;;;34.33;32.67;;;;;2.87;56.70;100487.94;5056931;28;45548;-73
2022/12/12 16:43:38;;;;;;;;;32.33;25.67;;;;;2.75;56.56;100474.91;5053141;28;45594;-73
2022/12/12 16:46:04;;;;;;;;;34.00;29.00;;;;;2.66;56.42;100469.78;5034588;28;45465;-74
2022/12/12 16:48:36;;;;;;;;;34.00;34.00;;;;;2.71;57.01;100490.91;5049701;28;45419;-75
2022/12/12 16:51:05;;;;;;;;;38.00;29.00;;;;;2.67;56.82;100488.31;5055977;28;45498;-74
2022/12/12 16:53:31;;;;;;;;;37.67;34.33;;;;;2.70;57.28;100492.69;5055384;28;46197;-74
2022/12/12 16:55:56;;;;;;;;;38.00;35.33;;;;;2.73;56.97;100487.31;5055455;28;45383;-74
2022/12/12 16:58:22;;;;;;;;;41.67;32.33;;;;;2.58;57.05;100458.47;5055047;28;45553;-72
2022/12/12 17:00:51;;;;;;;;;36.00;29.67;;;;;2.61;56.78;100461.94;5056937;28;45510;-74
2022/12/12 17:03:17;;;;;;;;;40.00;34.33;;;;;2.66;56.96;100472.44;5038219;28;46134;-74
2022/12/12 17:05:44;;;;;;;;;37.67;31.33;;;;;2.65;57.18;100474.22;5037349;28;45747;-75
2022/12/12 17:08:09;;;;;;;;;23.33;19.33;;;;;2.69;57.19;100466.22;5055692;28;45403;-75
2022/12/12 17:10:36;;;;;;;;;36.33;32.67;;;;;2.70;56.88;100467.97;5037337;28;45352;-74